Time;durP1;ratioP1;P1;durP2;ratioP2;P2;SDS_P1;SDS_P2;PMS_P1;PMS_P2;Temp;Humidity;BMP_temperature;BMP_pressure;BME280_temperature;BME280_humidity;BME280_pressure;Samples;Min_cycle;Max_cycle;Signal;HPM_P1;HPM_P2
2022/07/16 00:01:24;;;;;;;6.40;2.40;;;;;;;;;;5014601;28;20446;-47
2022/07/16 00:04:00;;;;;;;3.20;2.90;;;;;;;;;;5014785;28;20794;-52
2022/07/16 00:06:28;;;;;;;2.90;2.60;;;;;;;;;;5014754;28;20396;-51
2022/07/16 00:08:54;;;;;;;2.50;2.30;;;;;;;;;;5014399;28;20428;-51
2022/07/16 00:11:20;;;;;;;4.10;2.70;;;;;;;;;;5013943;28;20524;-49
2022/07/16 00:13:46;;;;;;;2.70;2.50;;;;;;;;;;5014564;28;20414;-50
2022/07/16 00:16:13;;;;;;;2.70;2.50;;;;;;;;;;5014655;28;20417;-50
2022/07/16 00:21:24;;;;;;;4.70;2.73;;;;;;;;;;5014605;28;20457;-51
2022/07/16 00:23:50;;;;;;;2.83;2.63;;;;;;;;;;5014477;28;20399;-51
2022/07/16 00:26:17;;;;;;;5.67;3.00;;;;;;;;;;5014457;28;20376;-51
2022/07/16 00:28:43;;;;;;;3.37;2.70;;;;;;;;;;5013789;28;20905;-49
2022/07/16 00:31:09;;;;;;;3.07;2.43;;;;;;;;;;5013982;28;20440;-51
2022/07/16 00:33:35;;;;;;;2.47;2.27;;;;;;;;;;5014332;28;20378;-51
2022/07/16 00:36:02;;;;;;;3.63;3.20;;;;;;;;;;5014338;28;20411;-51
2022/07/16 00:38:28;;;;;;;7.13;2.40;;;;;;;;;;5013429;28;20970;-52
2022/07/16 00:40:54;;;;;;;4.30;2.57;;;;;;;;;;5013908;28;20412;-52
2022/07/16 00:43:20;;;;;;;3.00;2.80;;;;;;;;;;5014045;28;20951;-51
2022/07/16 00:45:46;;;;;;;2.80;2.60;;;;;;;;;;5013837;28;20382;-52
2022/07/16 00:48:12;;;;;;;4.10;2.23;;;;;;;;;;5013460;28;20403;-49
2022/07/16 00:50:38;;;;;;;3.40;2.77;;;;;;;;;;5013422;28;20433;-49
2022/07/16 00:53:05;;;;;;;4.80;2.47;;;;;;;;;;5013908;28;20441;-49
2022/07/16 00:55:31;;;;;;;5.90;2.77;;;;;;;;;;5013829;28;20374;-51
2022/07/16 00:57:58;;;;;;;7.70;3.67;;;;;;;;;;5013245;28;20409;-52
2022/07/16 01:00:24;;;;;;;3.33;2.50;;;;;;;;;;5013479;28;20461;-50
2022/07/16 01:02:53;;;;;;;2.63;2.43;;;;;;;;;;5012967;28;20387;-48
2022/07/16 01:05:20;;;;;;;3.60;2.93;;;;;;;;;;5013209;28;20390;-47
2022/07/16 01:07:46;;;;;;;4.00;3.50;;;;;;;;;;5013105;28;20428;-49
2022/07/16 01:10:15;;;;;;;3.20;2.80;;;;;;;;;;5013274;28;20417;-47
2022/07/16 01:12:41;;;;;;;3.00;2.70;;;;;;;;;;5013269;28;20404;-48
2022/07/16 01:15:07;;;;;;;3.40;2.70;;;;;;;;;;5013543;28;20412;-48
2022/07/16 01:17:33;;;;;;;8.80;2.90;;;;;;;;;;5013056;28;20423;-49
2022/07/16 01:19:59;;;;;;;2.70;2.50;;;;;;;;;;5013070;28;20502;-48
2022/07/16 01:22:26;;;;;;;9.30;2.73;;;;;;;;;;5013341;28;20389;-50
2022/07/16 01:24:52;;;;;;;5.83;3.60;;;;;;;;;;5012554;28;20399;-48
2022/07/16 01:27:19;;;;;;;4.03;3.20;;;;;;;;;;5013151;28;20461;-48
2022/07/16 01:29:45;;;;;;;3.10;2.80;;;;;;;;;;5012659;28;20403;-49
2022/07/16 01:32:11;;;;;;;2.57;2.37;;;;;;;;;;5012911;28;20391;-48
2022/07/16 01:34:38;;;;;;;4.40;3.00;;;;;;;;;;5013089;28;20509;-48
2022/07/16 01:37:08;;;;;;;4.73;3.50;;;;;;;;;;5012958;28;20967;-48
2022/07/16 01:39:35;;;;;;;3.20;2.43;;;;;;;;;;5012579;28;20477;-48
2022/07/16 01:42:02;;;;;;;3.77;3.47;;;;;;;;;;5012696;28;20490;-48
2022/07/16 01:44:30;;;;;;;5.60;4.00;;;;;;;;;;5012921;28;20381;-49
2022/07/16 01:46:57;;;;;;;5.67;3.07;;;;;;;;;;5013089;28;20730;-49
2022/07/16 01:49:23;;;;;;;5.53;2.70;;;;;;;;;;5012399;28;20397;-49
2022/07/16 01:51:49;;;;;;;3.17;2.90;;;;;;;;;;5012517;28;20477;-49
2022/07/16 01:54:15;;;;;;;3.53;3.23;;;;;;;;;;5012787;28;20388;-49
2022/07/16 01:56:41;;;;;;;2.80;2.60;;;;;;;;;;5012647;28;20384;-48
2022/07/16 01:59:07;;;;;;;4.87;3.50;;;;;;;;;;5012099;28;20898;-49
2022/07/16 02:01:33;;;;;;;3.90;3.50;;;;;;;;;;5012711;28;20417;-48
2022/07/16 02:04:00;;;;;;;4.63;2.93;;;;;;;;;;5012571;28;20421;-49
2022/07/16 02:06:26;;;;;;;3.00;2.63;;;;;;;;;;5012550;28;20413;-48
2022/07/16 02:08:52;;;;;;;3.70;2.83;;;;;;;;;;5012043;28;20510;-49
2022/07/16 02:11:18;;;;;;;4.90;2.90;;;;;;;;;;5012169;28;20443;-49
2022/07/16 02:13:45;;;;;;;3.73;2.70;;;;;;;;;;5012378;28;20386;-48
2022/07/16 02:16:11;;;;;;;3.13;2.70;;;;;;;;;;5012427;28;20382;-49
2022/07/16 02:18:37;;;;;;;5.70;2.83;;;;;;;;;;5012088;28;20428;-49
2022/07/16 02:21:04;;;;;;;3.80;3.07;;;;;;;;;;5012007;28;20407;-49
2022/07/16 02:23:30;;;;;;;3.00;2.80;;;;;;;;;;5012547;28;20739;-50
2022/07/16 02:25:56;;;;;;;3.07;2.87;;;;;;;;;;5012265;28;20403;-48
2022/07/16 02:31:25;;;;;;;4.70;3.27;;;;;;;;;;5011891;28;20445;-50
2022/07/16 02:33:51;;;;;;;3.53;2.80;;;;;;;;;;5012003;28;20379;-47
2022/07/16 02:36:17;;;;;;;2.73;2.53;;;;;;;;;;5012386;28;20490;-48
2022/07/16 02:38:43;;;;;;;3.57;3.00;;;;;;;;;;5011848;28;20498;-51
2022/07/16 02:41:09;;;;;;;8.80;2.83;;;;;;;;;;5011680;28;20480;-50
2022/07/16 02:43:35;;;;;;;3.00;2.80;;;;;;;;;;5012033;28;20889;-49
2022/07/16 02:46:01;;;;;;;4.77;2.77;;;;;;;;;;5012073;28;20435;-49
2022/07/16 02:48:27;;;;;;;3.93;3.30;;;;;;;;;;5011759;28;20451;-51
2022/07/16 02:50:53;;;;;;;3.90;2.60;;;;;;;;;;5011837;28;20458;-51
2022/07/16 02:53:19;;;;;;;5.33;3.10;;;;;;;;;;5012104;28;20422;-50
2022/07/16 02:55:45;;;;;;;3.63;2.60;;;;;;;;;;5012007;28;20387;-51
2022/07/16 02:58:11;;;;;;;3.07;2.63;;;;;;;;;;5011709;28;20475;-50
2022/07/16 03:00:37;;;;;;;2.70;2.50;;;;;;;;;;5011538;28;20382;-52
2022/07/16 03:03:03;;;;;;;3.10;2.73;;;;;;;;;;5011884;28;20470;-52
2022/07/16 03:05:29;;;;;;;3.40;2.80;;;;;;;;;;5012004;28;20407;-52
2022/07/16 03:07:55;;;;;;;4.20;2.70;;;;;;;;;;5011828;28;20421;-52
2022/07/16 03:10:22;;;;;;;3.57;3.27;;;;;;;;;;5011397;28;20935;-50
2022/07/16 03:12:47;;;;;;;3.10;2.90;;;;;;;;;;5011999;28;20411;-51
2022/07/16 03:15:13;;;;;;;5.77;3.07;;;;;;;;;;5011945;28;20406;-50
2022/07/16 03:17:40;;;;;;;2.77;2.57;;;;;;;;;;5011405;28;20405;-50
2022/07/16 03:20:07;;;;;;;4.20;2.93;;;;;;;;;;5011515;28;20406;-50
2022/07/16 03:22:33;;;;;;;3.70;3.33;;;;;;;;;;5011669;28;20869;-50
2022/07/16 03:24:59;;;;;;;3.43;2.70;;;;;;;;;;5011722;28;20411;-50
2022/07/16 03:27:24;;;;;;;5.90;3.10;;;;;;;;;;5011639;28;20423;-51
2022/07/16 03:29:50;;;;;;;2.90;2.67;;;;;;;;;;5011228;28;20769;-50
2022/07/16 03:32:16;;;;;;;3.20;2.90;;;;;;;;;;5011637;28;20418;-50
2022/07/16 03:34:42;;;;;;;6.47;2.60;;;;;;;;;;5011683;28;20408;-50
2022/07/16 03:37:09;;;;;;;3.23;2.23;;;;;;;;;;5011572;28;20494;-51
2022/07/16 03:39:35;;;;;;;7.47;2.90;;;;;;;;;;5011298;28;20382;-52
2022/07/16 03:42:01;;;;;;;2.73;2.53;;;;;;;;;;5011662;28;20399;-51
2022/07/16 03:44:27;;;;;;;3.93;2.93;;;;;;;;;;5011690;28;20373;-50
2022/07/16 03:46:53;;;;;;;2.50;2.23;;;;;;;;;;5012733;28;20917;-52
2022/07/16 03:49:19;;;;;;;4.27;2.93;;;;;;;;;;5015184;28;20422;-52
2022/07/16 03:51:45;;;;;;;5.87;3.30;;;;;;;;;;5015123;28;20451;-52
2022/07/16 03:54:11;;;;;;;3.40;3.10;;;;;;;;;;5015360;28;20385;-51
2022/07/16 03:56:37;;;;;;;3.40;2.40;;;;;;;;;;5015459;28;20378;-51
2022/07/16 03:59:03;;;;;;;4.83;2.70;;;;;;;;;;5014804;28;20425;-50
2022/07/16 04:01:29;;;;;;;4.43;3.00;;;;;;;;;;5014395;28;21001;-49
2022/07/16 04:03:55;;;;;;;3.77;2.73;;;;;;;;;;5014521;28;20807;-51
2022/07/16 04:06:21;;;;;;;4.23;2.57;;;;;;;;;;5014485;28;20389;-48
2022/07/16 04:08:47;;;;;;;3.03;2.40;;;;;;;;;;5014575;28;20428;-48
2022/07/16 04:11:13;;;;;;;15.13;2.73;;;;;;;;;;5014264;28;20501;-47
2022/07/16 04:13:39;;;;;;;3.73;2.90;;;;;;;;;;5014458;28;20411;-46
2022/07/16 04:16:06;;;;;;;5.03;3.00;;;;;;;;;;5014764;28;20432;-48
2022/07/16 04:18:32;;;;;;;2.40;2.30;;;;;;;;;;5014551;28;20452;-48
2022/07/16 04:20:58;;;;;;;4.50;3.07;;;;;;;;;;5014211;28;20769;-49
2022/07/16 04:23:24;;;;;;;2.50;2.30;;;;;;;;;;5014222;28;20506;-47
2022/07/16 04:25:50;;;;;;;2.43;2.23;;;;;;;;;;5014432;28;20931;-50
2022/07/16 04:28:16;;;;;;;3.00;2.53;;;;;;;;;;5014203;28;20409;-47
2022/07/16 04:30:43;;;;;;;3.13;2.37;;;;;;;;;;5014204;28;20451;-47
2022/07/16 04:33:09;;;;;;;2.57;2.40;;;;;;;;;;5014385;28;20737;-48
2022/07/16 04:35:35;;;;;;;2.70;2.50;;;;;;;;;;5014347;28;20402;-47
2022/07/16 04:38:01;;;;;;;5.50;2.70;;;;;;;;;;5013955;28;20447;-48
2022/07/16 04:40:27;;;;;;;3.27;3.00;;;;;;;;;;5013955;28;20460;-47
2022/07/16 04:42:53;;;;;;;2.60;2.40;;;;;;;;;;5013962;28;20426;-47
2022/07/16 04:45:19;;;;;;;8.83;2.80;;;;;;;;;;5014293;28;20462;-48
2022/07/16 04:47:45;;;;;;;3.97;3.30;;;;;;;;;;5013993;28;20423;-48
2022/07/16 04:50:11;;;;;;;2.60;2.40;;;;;;;;;;5013753;28;20460;-48
2022/07/16 04:52:37;;;;;;;2.97;2.30;;;;;;;;;;5013926;28;20769;-47
2022/07/16 04:55:03;;;;;;;3.13;2.90;;;;;;;;;;5013994;28;20370;-49
2022/07/16 04:57:29;;;;;;;4.80;2.40;;;;;;;;;;5012546;28;20841;-47
2022/07/16 04:59:55;;;;;;;3.30;2.53;;;;;;;;;;5012900;28;20378;-48
2022/07/16 05:05:06;;;;;;;4.83;3.00;;;;;;;;;;5013979;28;20396;-47
2022/07/16 05:07:32;;;;;;;3.33;2.73;;;;;;;;;;5014049;28;20437;-47
2022/07/16 05:09:58;;;;;;;2.43;2.23;;;;;;;;;;5013375;28;20459;-47
2022/07/16 05:12:24;;;;;;;4.07;3.43;;;;;;;;;;5013581;28;20409;-48
2022/07/16 05:14:50;;;;;;;2.67;2.30;;;;;;;;;;5013537;28;20956;-49
2022/07/16 05:17:16;;;;;;;5.07;3.23;;;;;;;;;;5013432;28;20410;-48
2022/07/16 05:19:42;;;;;;;4.60;2.87;;;;;;;;;;5013464;28;20388;-47
2022/07/16 05:22:08;;;;;;;4.63;2.37;;;;;;;;;;5012794;28;20408;-46
2022/07/16 05:24:36;;;;;;;3.20;2.60;;;;;;;;;;5013374;28;20379;-48
2022/07/16 05:27:02;;;;;;;3.60;2.63;;;;;;;;;;5013174;28;20400;-49
2022/07/16 05:29:28;;;;;;;4.17;2.77;;;;;;;;;;5013365;28;20905;-48
2022/07/16 05:31:53;;;;;;;3.77;2.67;;;;;;;;;;5013018;28;20556;-48
2022/07/16 05:34:19;;;;;;;5.83;2.83;;;;;;;;;;5013239;28;20389;-49
2022/07/16 05:36:45;;;;;;;2.97;2.77;;;;;;;;;;5013057;28;21022;-47
2022/07/16 05:39:11;;;;;;;3.60;2.40;;;;;;;;;;5011675;28;20839;-47
2022/07/16 05:41:37;;;;;;;2.90;2.50;;;;;;;;;;5012751;28;20412;-47
2022/07/16 05:44:03;;;;;;;3.17;2.37;;;;;;;;;;5013109;28;20410;-49
2022/07/16 05:46:29;;;;;;;3.90;2.13;;;;;;;;;;5012995;28;20422;-47
2022/07/16 05:48:55;;;;;;;2.13;2.03;;;;;;;;;;5012936;28;20423;-48
2022/07/16 05:51:21;;;;;;;2.47;2.27;;;;;;;;;;5012436;28;20454;-47
2022/07/16 05:53:47;;;;;;;6.50;2.93;;;;;;;;;;5012877;28;20411;-48
2022/07/16 05:56:13;;;;;;;4.47;2.50;;;;;;;;;;5011543;28;20412;-49
2022/07/16 05:58:39;;;;;;;2.63;2.43;;;;;;;;;;5012678;28;20434;-50
2022/07/16 06:01:05;;;;;;;3.50;2.23;;;;;;;;;;5012522;28;20771;-50
2022/07/16 06:03:31;;;;;;;3.10;2.70;;;;;;;;;;5012815;28;20431;-48
2022/07/16 06:05:57;;;;;;;4.33;2.93;;;;;;;;;;5012523;28;20403;-46
2022/07/16 06:08:23;;;;;;;4.80;2.80;;;;;;;;;;5012540;28;20942;-47
2022/07/16 06:10:49;;;;;;;4.40;2.77;;;;;;;;;;5012018;28;20429;-47
2022/07/16 06:13:15;;;;;;;5.00;2.83;;;;;;;;;;5012659;28;20407;-47
2022/07/16 06:15:41;;;;;;;4.27;2.80;;;;;;;;;;5012534;28;20441;-48
2022/07/16 06:18:07;;;;;;;3.03;2.40;;;;;;;;;;5012357;28;20402;-48
2022/07/16 06:20:33;;;;;;;4.60;2.63;;;;;;;;;;5012068;28;20414;-50
2022/07/16 06:22:59;;;;;;;3.33;2.80;;;;;;;;;;5012116;28;20408;-49
2022/07/16 06:25:26;;;;;;;3.37;3.00;;;;;;;;;;5011023;28;20989;-49
2022/07/16 06:27:52;;;;;;;5.00;3.23;;;;;;;;;;5012155;28;20573;-47
2022/07/16 06:30:18;;;;;;;4.80;3.00;;;;;;;;;;5012351;28;20458;-48
2022/07/16 06:32:45;;;;;;;6.80;3.57;;;;;;;;;;5012256;28;20401;-46
2022/07/16 06:35:11;;;;;;;3.50;3.30;;;;;;;;;;5012173;28;20430;-47
2022/07/16 06:37:37;;;;;;;3.60;3.30;;;;;;;;;;5012160;28;20413;-47
2022/07/16 06:40:03;;;;;;;3.13;2.93;;;;;;;;;;5012092;28;20388;-47
2022/07/16 06:42:29;;;;;;;3.43;3.17;;;;;;;;;;5012079;28;20402;-48
2022/07/16 06:44:55;;;;;;;3.53;3.10;;;;;;;;;;5012058;28;20525;-48
2022/07/16 06:47:21;;;;;;;3.13;2.70;;;;;;;;;;5012038;28;20403;-48
2022/07/16 06:49:47;;;;;;;3.30;3.00;;;;;;;;;;5011827;28;20412;-51
2022/07/16 06:52:13;;;;;;;3.80;3.03;;;;;;;;;;5011902;28;20516;-50
2022/07/16 06:54:39;;;;;;;6.17;2.57;;;;;;;;;;5012103;28;20700;-47
2022/07/16 06:57:05;;;;;;;3.43;2.90;;;;;;;;;;5011859;28;20415;-47
2022/07/16 06:59:31;;;;;;;4.43;2.70;;;;;;;;;;5011931;28;20486;-48
2022/07/16 07:01:57;;;;;;;2.63;2.40;;;;;;;;;;5011882;28;20461;-48
2022/07/16 07:04:23;;;;;;;2.90;2.60;;;;;;;;;;5011948;28;20405;-49
2022/07/16 07:06:49;;;;;;;2.77;2.57;;;;;;;;;;5011989;28;20438;-46
2022/07/16 07:09:15;;;;;;;3.50;2.27;;;;;;;;;;5012243;28;20428;-46
2022/07/16 07:11:42;;;;;;;2.93;2.67;;;;;;;;;;5011689;28;20462;-47
2022/07/16 07:14:08;;;;;;;7.23;3.50;;;;;;;;;;5011789;28;20416;-48
2022/07/16 07:16:34;;;;;;;3.30;3.00;;;;;;;;;;5010814;28;20894;-46
2022/07/16 07:19:00;;;;;;;2.73;2.50;;;;;;;;;;5011278;28;20432;-47
2022/07/16 07:21:26;;;;;;;3.10;2.90;;;;;;;;;;5011367;28;20410;-47
2022/07/16 07:23:52;;;;;;;3.00;2.80;;;;;;;;;;5015647;28;20936;-47
2022/07/16 07:26:18;;;;;;;2.70;2.50;;;;;;;;;;5015413;28;20409;-48
2022/07/16 07:28:44;;;;;;;3.00;2.70;;;;;;;;;;5015029;28;20454;-48
2022/07/16 07:31:10;;;;;;;3.20;2.20;;;;;;;;;;5015150;28;20451;-47
2022/07/16 07:33:37;;;;;;;1.93;1.83;;;;;;;;;;5015318;28;20897;-48
2022/07/16 07:36:03;;;;;;;2.80;2.00;;;;;;;;;;5012934;28;20390;-48
2022/07/16 07:38:29;;;;;;;2.23;2.03;;;;;;;;;;5014414;28;20455;-49
2022/07/16 07:40:55;;;;;;;3.30;1.80;;;;;;;;;;5014219;28;20424;-47
2022/07/16 07:43:21;;;;;;;1.90;1.80;;;;;;;;;;5012634;28;20422;-49
2022/07/16 07:45:47;;;;;;;1.70;1.60;;;;;;;;;;5015119;28;20553;-48
2022/07/16 07:48:13;;;;;;;4.20;1.47;;;;;;;;;;5014496;28;20442;-50
2022/07/16 07:50:40;;;;;;;3.13;1.80;;;;;;;;;;5014635;28;20660;-50
2022/07/16 07:53:06;;;;;;;1.67;1.43;;;;;;;;;;5014459;28;20415;-49
2022/07/16 07:55:32;;;;;;;1.70;1.60;;;;;;;;;;5014939;28;20401;-50
2022/07/16 07:57:58;;;;;;;3.10;1.57;;;;;;;;;;5014283;28;20518;-47
2022/07/16 08:00:25;;;;;;;4.03;1.40;;;;;;;;;;5014459;28;20403;-47
2022/07/16 08:02:51;;;;;;;1.87;1.50;;;;;;;;;;5014626;28;20474;-47
2022/07/16 08:05:17;;;;;;;2.10;1.43;;;;;;;;;;5014900;28;20477;-47
2022/07/16 08:07:43;;;;;;;1.23;1.13;;;;;;;;;;5014228;28;20433;-46
2022/07/16 08:10:10;;;;;;;1.67;1.50;;;;;;;;;;5014365;28;20982;-47
2022/07/16 08:12:37;;;;;;;1.87;1.27;;;;;;;;;;5014168;28;20796;-47
2022/07/16 08:15:03;;;;;;;1.47;1.37;;;;;;;;;;5006908;28;20422;-48
2022/07/16 08:17:29;;;;;;;1.10;1.00;;;;;;;;;;5014188;28;21011;-50
2022/07/16 08:19:55;;;;;;;1.97;1.30;;;;;;;;;;5014475;28;20491;-47
2022/07/16 08:22:21;;;;;;;3.30;1.60;;;;;;;;;;5013992;28;20488;-47
2022/07/16 08:27:32;;;;;;;2.13;1.40;;;;;;;;;;5013551;28;20488;-51
2022/07/16 08:29:58;;;;;;;1.63;1.40;;;;;;;;;;5012092;28;20407;-48
2022/07/16 08:32:24;;;;;;;1.57;1.47;;;;;;;;;;5013488;28;20415;-49
2022/07/16 08:34:50;;;;;;;1.40;1.30;;;;;;;;;;5014252;28;20411;-49
2022/07/16 08:37:16;;;;;;;1.60;1.43;;;;;;;;;;5014158;28;20944;-47
2022/07/16 08:39:43;;;;;;;2.27;2.13;;;;;;;;;;5013668;28;20525;-48
2022/07/16 08:42:10;;;;;;;1.63;1.53;;;;;;;;;;5013582;28;20431;-48
2022/07/16 08:44:38;;;;;;;1.50;1.40;;;;;;;;;;5013842;28;20442;-47
2022/07/16 08:47:04;;;;;;;1.63;1.43;;;;;;;;;;5013900;28;20461;-47
2022/07/16 08:49:30;;;;;;;1.93;1.20;;;;;;;;;;5014050;28;20406;-48
2022/07/16 08:51:59;;;;;;;3.13;1.50;;;;;;;;;;5013144;28;20454;-50
2022/07/16 08:54:27;;;;;;;1.50;1.40;;;;;;;;;;5013937;28;20407;-48
2022/07/16 08:56:53;;;;;;;1.20;1.10;;;;;;;;;;5013553;28;20411;-47
2022/07/16 08:59:19;;;;;;;1.47;1.17;;;;;;;;;;5013735;28;20434;-47
2022/07/16 09:01:45;;;;;;;3.43;1.20;;;;;;;;;;5013331;28;20419;-49
2022/07/16 09:04:11;;;;;;;1.83;1.20;;;;;;;;;;5013668;28;20796;-47
2022/07/16 09:06:37;;;;;;;1.10;0.90;;;;;;;;;;5013165;28;20510;-50
2022/07/16 09:09:03;;;;;;;1.53;1.10;;;;;;;;;;5013669;28;20437;-49
2022/07/16 09:11:31;;;;;;;1.37;1.27;;;;;;;;;;5013090;28;21050;-47
2022/07/16 09:14:03;;;;;;;1.63;1.00;;;;;;;;;;5013623;28;20892;-49
2022/07/16 09:16:39;;;;;;;1.20;1.10;;;;;;;;;;5013133;28;20884;-48
2022/07/16 09:19:12;;;;;;;1.50;1.23;;;;;;;;;;5013278;28;20476;-49
2022/07/16 09:21:58;;;;;;;1.37;0.90;;;;;;;;;;5012813;28;20438;-49
2022/07/16 09:24:38;;;;;;;1.07;0.97;;;;;;;;;;4994321;28;20400;-48
2022/07/16 09:27:04;;;;;;;3.40;1.10;;;;;;;;;;4999167;28;20430;-47
2022/07/16 09:29:32;;;;;;;2.27;1.33;;;;;;;;;;5013114;28;20411;-47
2022/07/16 09:31:58;;;;;;;1.10;1.00;;;;;;;;;;5012609;28;20451;-51
2022/07/16 09:34:24;;;;;;;1.97;1.23;;;;;;;;;;5013311;28;20476;-47
2022/07/16 09:36:58;;;;;;;1.47;1.20;;;;;;;;;;5012817;28;20422;-48
2022/07/16 09:39:24;;;;;;;1.30;1.20;;;;;;;;;;5012937;28;20443;-48
2022/07/16 09:41:50;;;;;;;2.23;1.33;;;;;;;;;;5012841;28;20889;-50
2022/07/16 09:44:16;;;;;;;1.73;1.00;;;;;;;;;;5012311;28;20403;-50
2022/07/16 09:46:56;;;;;;;1.53;1.17;;;;;;;;;;5012409;28;20775;-51
2022/07/16 09:49:22;;;;;;;1.70;1.23;;;;;;;;;;5007753;28;20453;-51
2022/07/16 09:51:48;;;;;;;3.97;1.30;;;;;;;;;;5010299;28;20470;-49
2022/07/16 09:54:26;;;;;;;1.30;1.20;;;;;;;;;;5012742;28;20457;-47
2022/07/16 09:57:07;;;;;;;2.10;1.40;;;;;;;;;;5012622;28;20470;-48
2022/07/16 09:59:33;;;;;;;3.00;1.30;;;;;;;;;;5013109;28;20399;-51
2022/07/16 10:01:59;;;;;;;1.83;1.13;;;;;;;;;;5011604;28;20468;-51
2022/07/16 10:04:26;;;;;;;1.23;0.93;;;;;;;;;;5012526;28;20423;-53
2022/07/16 10:06:52;;;;;;;1.43;1.33;;;;;;;;;;5012378;28;20430;-52
2022/07/16 10:09:18;;;;;;;2.70;1.10;;;;;;;;;;5012503;28;20494;-52
2022/07/16 10:11:45;;;;;;;2.47;1.30;;;;;;;;;;5012164;28;20925;-52
2022/07/16 10:14:11;;;;;;;2.43;1.27;;;;;;;;;;5012927;28;20426;-52
2022/07/16 10:16:45;;;;;;;1.07;0.97;;;;;;;;;;5012167;28;20456;-53
2022/07/16 10:19:11;;;;;;;1.37;1.27;;;;;;;;;;5012394;28;20425;-52
2022/07/16 10:21:38;;;;;;;2.10;1.93;;;;;;;;;;5011948;28;20453;-51
2022/07/16 10:24:05;;;;;;;1.50;1.17;;;;;;;;;;5012007;28;20795;-52
2022/07/16 10:26:32;;;;;;;3.83;1.40;;;;;;;;;;5012288;28;20407;-50
2022/07/16 10:28:59;;;;;;;2.00;1.30;;;;;;;;;;5011822;28;20439;-53
2022/07/16 10:31:31;;;;;;;1.50;0.90;;;;;;;;;;5011724;28;20981;-52
2022/07/16 10:34:15;;;;;;;1.40;1.30;;;;;;;;;;5012683;28;20771;-52
2022/07/16 10:36:50;;;;;;;1.50;1.00;;;;;;;;;;5011047;28;20414;-52
2022/07/16 10:39:17;;;;;;;1.73;1.20;;;;;;;;;;5027535;28;20485;-52
2022/07/16 10:42:02;;;;;;;2.20;1.20;;;;;;;;;;5030423;28;20772;-51
2022/07/16 10:44:43;;;;;;;2.40;1.20;;;;;;;;;;5012035;28;20410;-51
2022/07/16 10:47:09;;;;;;;4.60;1.63;;;;;;;;;;5011719;28;20506;-51
2022/07/16 10:49:36;;;;;;;1.40;1.23;;;;;;;;;;5011615;28;20404;-51
2022/07/16 10:52:09;;;;;;;5.87;1.20;;;;;;;;;;5011132;28;20566;-52
2022/07/16 10:54:50;;;;;;;3.10;1.10;;;;;;;;;;5011819;28;20941;-51
2022/07/16 10:57:17;;;;;;;1.73;1.00;;;;;;;;;;5013699;28;20979;-51
2022/07/16 10:59:48;;;;;;;1.57;1.10;;;;;;;;;;5015739;28;20414;-50
2022/07/16 11:02:16;;;;;;;1.30;1.07;;;;;;;;;;5016158;28;20409;-52
2022/07/16 11:04:43;;;;;;;1.40;1.00;;;;;;;;;;5016253;28;20430;-53
2022/07/16 11:07:11;;;;;;;0.80;0.70;;;;;;;;;;5016184;28;20414;-53
2022/07/16 11:09:42;;;;;;;2.70;1.30;;;;;;;;;;5015661;28;20450;-53
2022/07/16 11:12:11;;;;;;;4.83;1.37;;;;;;;;;;5015453;28;20554;-51
2022/07/16 11:14:38;;;;;;;2.33;1.03;;;;;;;;;;5015715;28;20470;-52
2022/07/16 11:17:04;;;;;;;1.80;1.10;;;;;;;;;;5015758;28;20442;-53
2022/07/16 11:19:30;;;;;;;1.93;1.00;;;;;;;;;;5015424;28;20491;-53
2022/07/16 11:22:00;;;;;;;2.90;1.20;;;;;;;;;;5015598;28;20403;-52
2022/07/16 11:24:27;;;;;;;1.07;0.97;;;;;;;;;;5015758;28;21049;-51
2022/07/16 11:26:53;;;;;;;1.70;1.03;;;;;;;;;;5015645;28;20441;-52
2022/07/16 11:29:21;;;;;;;2.90;1.30;;;;;;;;;;5015122;28;20450;-52
2022/07/16 11:31:47;;;;;;;1.30;1.20;;;;;;;;;;5015281;28;20455;-52
2022/07/16 11:34:13;;;;;;;1.20;0.90;;;;;;;;;;5015926;28;20508;-51
2022/07/16 11:36:41;;;;;;;1.20;1.10;;;;;;;;;;5015512;28;20399;-52
2022/07/16 11:39:06;;;;;;;3.13;1.40;;;;;;;;;;5014680;28;20542;-51
2022/07/16 11:41:33;;;;;;;3.33;1.37;;;;;;;;;;5015237;28;20497;-51
2022/07/16 11:44:07;;;;;;;2.33;1.10;;;;;;;;;;5015097;28;20260;-52
2022/07/16 11:46:33;;;;;;;1.30;1.20;;;;;;;;;;5015453;28;20415;-51
2022/07/16 11:48:59;;;;;;;3.17;1.20;;;;;;;;;;5014966;28;20425;-50
2022/07/16 11:51:28;;;;;;;1.93;1.00;;;;;;;;;;5014416;28;20553;-52
2022/07/16 11:53:54;;;;;;;3.77;1.80;;;;;;;;;;5014981;28;20410;-52
2022/07/16 11:56:39;;;;;;;2.67;1.60;;;;;;;;;;5015124;28;20911;-52
2022/07/16 11:59:24;;;;;;;2.93;1.00;;;;;;;;;;5015133;28;20424;-52
2022/07/16 12:01:59;;;;;;;3.00;1.30;;;;;;;;;;5014341;28;20419;-51
2022/07/16 12:04:35;;;;;;;1.80;1.03;;;;;;;;;;4995418;28;20511;-53
2022/07/16 12:07:02;;;;;;;1.47;1.20;;;;;;;;;;5004468;28;20469;-51
2022/07/16 12:09:54;;;;;;;4.83;1.00;;;;;;;;;;5011676;28;20836;-52
2022/07/16 12:12:22;;;;;;;2.40;1.20;;;;;;;;;;5015460;28;20481;-53
2022/07/16 12:14:53;;;;;;;1.77;1.00;;;;;;;;;;5032382;28;20910;-53
2022/07/16 12:17:25;;;;;;;4.83;1.10;;;;;;;;;;5014338;28;20419;-52
2022/07/16 12:20:03;;;;;;;1.63;1.00;;;;;;;;;;5014602;28;20415;-52
2022/07/16 12:22:45;;;;;;;1.00;0.90;;;;;;;;;;5015048;28;20450;-52
2022/07/16 12:25:18;;;;;;;3.23;0.93;;;;;;;;;;5014797;28;20909;-51
2022/07/16 12:27:48;;;;;;;1.10;1.00;;;;;;;;;;5013836;28;20445;-50
2022/07/16 12:30:14;;;;;;;2.30;0.90;;;;;;;;;;5013535;28;20419;-52
2022/07/16 12:32:47;;;;;;;1.10;1.00;;;;;;;;;;5014198;28;20434;-51
2022/07/16 12:35:32;;;;;;;1.67;1.53;;;;;;;;;;5013339;28;20867;-51
2022/07/16 12:37:58;;;;;;;1.43;0.90;;;;;;;;;;5013599;28;20530;-52
2022/07/16 12:40:24;;;;;;;1.90;0.90;;;;;;;;;;5013964;28;21105;-53
2022/07/16 12:42:50;;;;;;;2.93;1.17;;;;;;;;;;5013848;28;20699;-53
2022/07/16 12:45:16;;;;;;;1.20;1.00;;;;;;;;;;5013685;28;20950;-53
2022/07/16 12:47:42;;;;;;;1.00;0.90;;;;;;;;;;5013284;28;20494;-51
2022/07/16 12:50:08;;;;;;;2.23;1.00;;;;;;;;;;5013911;28;20490;-51
2022/07/16 12:52:34;;;;;;;1.57;0.90;;;;;;;;;;5014445;28;20403;-50
2022/07/16 13:00:29;;;;;;;2.03;0.90;;;;;;;;;;5014070;28;20402;-52
2022/07/16 13:02:56;;;;;;;2.77;1.23;;;;;;;;;;5014359;28;20403;-52
2022/07/16 13:05:23;;;;;;;1.93;1.20;;;;;;;;;;5014160;28;20403;-52
2022/07/16 13:07:49;;;;;;;1.40;0.93;;;;;;;;;;5013955;28;20443;-50
2022/07/16 13:10:15;;;;;;;1.50;0.90;;;;;;;;;;5013731;28;20502;-50
2022/07/16 13:12:41;;;;;;;2.53;1.10;;;;;;;;;;5013788;28;20547;-52
2022/07/16 13:15:07;;;;;;;2.00;1.10;;;;;;;;;;5014367;28;20411;-53
2022/07/16 13:17:33;;;;;;;1.67;1.03;;;;;;;;;;5013617;28;20196;-52
2022/07/16 13:19:59;;;;;;;0.90;0.80;;;;;;;;;;5012717;28;20407;-51
2022/07/16 13:22:25;;;;;;;3.00;1.03;;;;;;;;;;5013487;28;20180;-53
2022/07/16 13:24:51;;;;;;;1.93;0.90;;;;;;;;;;5013848;28;20410;-51
2022/07/16 13:27:17;;;;;;;1.40;0.90;;;;;;;;;;5013463;28;20422;-51
2022/07/16 13:29:43;;;;;;;1.10;1.00;;;;;;;;;;5013184;28;20437;-51
2022/07/16 13:32:09;;;;;;;3.20;1.30;;;;;;;;;;5013088;28;20566;-52
2022/07/16 13:34:35;;;;;;;1.43;0.83;;;;;;;;;;5013449;28;20776;-51
2022/07/16 13:37:01;;;;;;;1.83;0.90;;;;;;;;;;5013372;28;20429;-50
2022/07/16 13:39:27;;;;;;;1.63;0.93;;;;;;;;;;5012932;28;20430;-51
2022/07/16 13:41:53;;;;;;;2.70;1.10;;;;;;;;;;5012530;28;20844;-51
2022/07/16 13:44:19;;;;;;;1.47;1.00;;;;;;;;;;5012599;28;20423;-51
2022/07/16 13:46:46;;;;;;;1.63;1.27;;;;;;;;;;5012887;28;20283;-51
2022/07/16 13:49:14;;;;;;;1.30;0.90;;;;;;;;;;5013270;28;20426;-52
2022/07/16 13:51:40;;;;;;;2.30;1.00;;;;;;;;;;5012764;28;20908;-51
2022/07/16 13:54:06;;;;;;;2.40;1.20;;;;;;;;;;5012856;28;20880;-51
2022/07/16 13:56:32;;;;;;;1.20;0.97;;;;;;;;;;5012625;28;20449;-49
2022/07/16 13:58:59;;;;;;;2.80;1.10;;;;;;;;;;5012676;28;20184;-49
2022/07/16 14:01:25;;;;;;;2.20;1.20;;;;;;;;;;5012384;28;20399;-50
2022/07/16 14:03:50;;;;;;;1.33;0.90;;;;;;;;;;5012602;28;20502;-52
2022/07/16 14:06:17;;;;;;;1.60;1.30;;;;;;;;;;5012535;28;20415;-52
2022/07/16 14:08:43;;;;;;;1.93;1.00;;;;;;;;;;5010646;28;20434;-50
2022/07/16 14:11:09;;;;;;;1.20;0.80;;;;;;;;;;5004579;28;20474;-50
2022/07/16 14:13:35;;;;;;;1.90;0.90;;;;;;;;;;5006955;28;20408;-51
2022/07/16 14:16:01;;;;;;;2.37;0.97;;;;;;;;;;5006029;28;20415;-52
2022/07/16 14:18:27;;;;;;;1.53;1.10;;;;;;;;;;5010937;28;20449;-53
2022/07/16 14:20:55;;;;;;;2.90;1.07;;;;;;;;;;5001435;28;20427;-52
2022/07/16 14:23:20;;;;;;;3.50;1.17;;;;;;;;;;5005266;28;20418;-51
2022/07/16 14:25:47;;;;;;;4.30;0.90;;;;;;;;;;5003358;28;20426;-51
2022/07/16 14:28:13;;;;;;;3.47;1.23;;;;;;;;;;5012230;28;20480;-51
2022/07/16 14:30:39;;;;;;;2.00;1.10;;;;;;;;;;5011568;28;20458;-50
2022/07/16 14:33:06;;;;;;;1.60;1.17;;;;;;;;;;5012264;28;20407;-53
2022/07/16 14:35:32;;;;;;;1.43;1.00;;;;;;;;;;4999584;28;20494;-51
2022/07/16 14:37:58;;;;;;;1.70;0.90;;;;;;;;;;5009642;28;20973;-51
2022/07/16 14:40:24;;;;;;;1.70;0.90;;;;;;;;;;5004477;28;20404;-51
2022/07/16 14:42:50;;;;;;;1.27;1.00;;;;;;;;;;5003722;28;20926;-52
2022/07/16 14:45:17;;;;;;;3.87;1.10;;;;;;;;;;5000864;28;20419;-52
2022/07/16 14:47:43;;;;;;;3.30;1.00;;;;;;;;;;5000031;28;20507;-51
2022/07/16 14:50:10;;;;;;;3.90;1.20;;;;;;;;;;4997179;28;20887;-50
2022/07/16 14:52:37;;;;;;;1.10;0.90;;;;;;;;;;5002353;28;20399;-52
2022/07/16 14:55:03;;;;;;;1.40;1.10;;;;;;;;;;5001599;28;20884;-52
2022/07/16 14:57:30;;;;;;;6.20;1.17;;;;;;;;;;5004574;28;20811;-50
2022/07/16 14:59:56;;;;;;;2.43;1.13;;;;;;;;;;4998096;28;20447;-50